sensor_id;sensor_type;location;lat;lon;timestamp;temperature;humidity
837;DHT22;400;53.550;9.932;2022-09-29T00:01:02;10.10;99.90
837;DHT22;400;53.550;9.932;2022-09-29T00:03:33;10.20;99.90
837;DHT22;400;53.550;9.932;2022-09-29T00:06:03;10.20;99.90
837;DHT22;400;53.550;9.932;2022-09-29T00:08:36;10.30;99.90
837;DHT22;400;53.550;9.932;2022-09-29T00:11:06;10.30;99.90
837;DHT22;400;53.550;9.932;2022-09-29T00:13:36;10.40;99.90
837;DHT22;400;53.550;9.932;2022-09-29T00:16:04;10.20;99.90
837;DHT22;400;53.550;9.932;2022-09-29T00:18:33;10.20;99.90
837;DHT22;400;53.550;9.932;2022-09-29T00:21:03;10.30;99.90
837;DHT22;400;53.550;9.932;2022-09-29T00:23:32;10.30;99.90
837;DHT22;400;53.550;9.932;2022-09-29T00:26:08;10.40;99.90
837;DHT22;400;53.550;9.932;2022-09-29T00:28:40;10.30;99.90
837;DHT22;400;53.550;9.932;2022-09-29T00:31:10;10.30;99.90
837;DHT22;400;53.550;9.932;2022-09-29T00:33:39;10.20;99.90
837;DHT22;400;53.550;9.932;2022-09-29T00:36:10;10.30;99.90
837;DHT22;400;53.550;9.932;2022-09-29T00:38:39;10.20;99.90
837;DHT22;400;53.550;9.932;2022-09-29T00:41:07;10.20;99.90
837;DHT22;400;53.550;9.932;2022-09-29T00:44:02;10.20;99.90
837;DHT22;400;53.550;9.932;2022-09-29T00:46:35;10.30;99.90
837;DHT22;400;53.550;9.932;2022-09-29T00:49:10;10.30;99.90
837;DHT22;400;53.550;9.932;2022-09-29T00:51:43;10.20;99.90
837;DHT22;400;53.550;9.932;2022-09-29T00:54:18;10.20;99.90
837;DHT22;400;53.550;9.932;2022-09-29T00:56:45;10.20;99.90
837;DHT22;400;53.550;9.932;2022-09-29T00:59:18;10.30;99.90
837;DHT22;400;53.550;9.932;2022-09-29T01:01:46;10.20;99.90
837;DHT22;400;53.550;9.932;2022-09-29T01:04:16;10.20;99.90
837;DHT22;400;53.550;9.932;2022-09-29T01:06:49;10.30;99.90
837;DHT22;400;53.550;9.932;2022-09-29T01:09:19;10.40;99.90
837;DHT22;400;53.550;9.932;2022-09-29T01:11:46;10.40;99.90
837;DHT22;400;53.550;9.932;2022-09-29T01:14:16;10.40;99.90
837;DHT22;400;53.550;9.932;2022-09-29T01:16:46;10.30;99.90
837;DHT22;400;53.550;9.932;2022-09-29T01:19:16;10.30;99.90
837;DHT22;400;53.550;9.932;2022-09-29T01:21:53;10.30;99.90
837;DHT22;400;53.550;9.932;2022-09-29T01:24:57;10.40;99.90
837;DHT22;400;53.550;9.932;2022-09-29T01:27:46;10.40;99.90
837;DHT22;400;53.550;9.932;2022-09-29T01:30:36;10.40;99.90
837;DHT22;400;53.550;9.932;2022-09-29T01:33:22;10.40;99.90
837;DHT22;400;53.550;9.932;2022-09-29T01:36:02;10.20;99.90
837;DHT22;400;53.550;9.932;2022-09-29T01:38:39;10.20;99.90
837;DHT22;400;53.550;9.932;2022-09-29T01:41:17;10.10;99.90
837;DHT22;400;53.550;9.932;2022-09-29T01:43:54;10.20;99.90
837;DHT22;400;53.550;9.932;2022-09-29T01:46:30;10.20;99.90
837;DHT22;400;53.550;9.932;2022-09-29T01:49:01;10.20;99.90
837;DHT22;400;53.550;9.932;2022-09-29T01:51:34;10.20;99.90
837;DHT22;400;53.550;9.932;2022-09-29T01:54:10;10.10;99.90
837;DHT22;400;53.550;9.932;2022-09-29T01:56:42;10.00;99.90
837;DHT22;400;53.550;9.932;2022-09-29T01:59:14;10.00;99.90
837;DHT22;400;53.550;9.932;2022-09-29T02:01:46;9.90;99.90
837;DHT22;400;53.550;9.932;2022-09-29T02:04:17;10.00;99.90
837;DHT22;400;53.550;9.932;2022-09-29T02:06:53;10.00;99.90
837;DHT22;400;53.550;9.932;2022-09-29T02:09:25;10.10;99.90
837;DHT22;400;53.550;9.932;2022-09-29T02:11:54;10.20;99.90
837;DHT22;400;53.550;9.932;2022-09-29T02:14:25;10.20;99.90
837;DHT22;400;53.550;9.932;2022-09-29T02:17:05;10.20;99.90
837;DHT22;400;53.550;9.932;2022-09-29T02:19:40;10.30;99.90
837;DHT22;400;53.550;9.932;2022-09-29T02:22:11;10.30;99.90
837;DHT22;400;53.550;9.932;2022-09-29T02:24:40;10.30;99.90
837;DHT22;400;53.550;9.932;2022-09-29T02:27:15;10.20;99.90
837;DHT22;400;53.550;9.932;2022-09-29T02:29:43;10.30;99.90
837;DHT22;400;53.550;9.932;2022-09-29T02:32:12;10.20;99.90
837;DHT22;400;53.550;9.932;2022-09-29T02:34:48;10.30;99.90
837;DHT22;400;53.550;9.932;2022-09-29T02:37:34;10.20;99.90
837;DHT22;400;53.550;9.932;2022-09-29T02:40:13;10.30;99.90
837;DHT22;400;53.550;9.932;2022-09-29T02:42:51;10.20;99.90
837;DHT22;400;53.550;9.932;2022-09-29T02:45:29;10.20;99.90
837;DHT22;400;53.550;9.932;2022-09-29T02:48:11;10.20;99.90
837;DHT22;400;53.550;9.932;2022-09-29T02:50:59;10.20;99.90
837;DHT22;400;53.550;9.932;2022-09-29T02:53:35;10.20;99.90
837;DHT22;400;53.550;9.932;2022-09-29T02:56:10;10.20;99.90
837;DHT22;400;53.550;9.932;2022-09-29T02:58:46;10.20;99.90
837;DHT22;400;53.550;9.932;2022-09-29T03:01:17;10.20;99.90
837;DHT22;400;53.550;9.932;2022-09-29T03:03:46;10.30;99.90
837;DHT22;400;53.550;9.932;2022-09-29T03:06:13;10.20;99.90
837;DHT22;400;53.550;9.932;2022-09-29T03:08:47;10.10;99.90
837;DHT22;400;53.550;9.932;2022-09-29T03:11:15;10.00;99.90
837;DHT22;400;53.550;9.932;2022-09-29T03:13:42;9.90;99.90
837;DHT22;400;53.550;9.932;2022-09-29T03:16:12;9.90;99.90
837;DHT22;400;53.550;9.932;2022-09-29T03:18:39;9.80;99.90
837;DHT22;400;53.550;9.932;2022-09-29T03:21:08;9.60;99.90
837;DHT22;400;53.550;9.932;2022-09-29T03:23:34;9.70;99.90
837;DHT22;400;53.550;9.932;2022-09-29T03:26:01;9.70;99.90
837;DHT22;400;53.550;9.932;2022-09-29T03:28:32;9.80;99.90
837;DHT22;400;53.550;9.932;2022-09-29T03:31:03;9.80;99.90
837;DHT22;400;53.550;9.932;2022-09-29T03:33:33;9.90;99.90
837;DHT22;400;53.550;9.932;2022-09-29T03:36:02;9.90;99.90
837;DHT22;400;53.550;9.932;2022-09-29T03:38:31;9.90;99.90
837;DHT22;400;53.550;9.932;2022-09-29T03:40:58;9.90;99.90
837;DHT22;400;53.550;9.932;2022-09-29T03:43:25;10.00;99.90
837;DHT22;400;53.550;9.932;2022-09-29T03:45:58;10.00;99.90
837;DHT22;400;53.550;9.932;2022-09-29T03:48:31;10.00;99.90
837;DHT22;400;53.550;9.932;2022-09-29T03:51:07;10.00;99.90
837;DHT22;400;53.550;9.932;2022-09-29T03:53:39;10.00;99.90
837;DHT22;400;53.550;9.932;2022-09-29T03:56:07;10.00;99.90
837;DHT22;400;53.550;9.932;2022-09-29T03:58:34;10.00;99.90
837;DHT22;400;53.550;9.932;2022-09-29T04:01:01;10.00;99.90
837;DHT22;400;53.550;9.932;2022-09-29T04:03:28;10.10;99.90
837;DHT22;400;53.550;9.932;2022-09-29T04:05:55;10.00;99.90
837;DHT22;400;53.550;9.932;2022-09-29T04:08:22;10.10;99.90
837;DHT22;400;53.550;9.932;2022-09-29T04:10:53;10.10;99.90
837;DHT22;400;53.550;9.932;2022-09-29T04:13:21;10.10;99.90
837;DHT22;400;53.550;9.932;2022-09-29T04:15:48;10.10;99.90
837;DHT22;400;53.550;9.932;2022-09-29T04:18:15;10.00;99.90
837;DHT22;400;53.550;9.932;2022-09-29T04:20:42;10.00;99.90
837;DHT22;400;53.550;9.932;2022-09-29T04:23:09;10.00;99.90
837;DHT22;400;53.550;9.932;2022-09-29T04:25:37;10.00;99.90
837;DHT22;400;53.550;9.932;2022-09-29T04:28:05;10.10;99.90
837;DHT22;400;53.550;9.932;2022-09-29T04:30:32;10.20;99.90
837;DHT22;400;53.550;9.932;2022-09-29T04:32:59;10.00;99.90
837;DHT22;400;53.550;9.932;2022-09-29T04:35:26;9.80;99.90
837;DHT22;400;53.550;9.932;2022-09-29T04:37:55;9.80;99.90
837;DHT22;400;53.550;9.932;2022-09-29T04:40:23;9.90;99.90
837;DHT22;400;53.550;9.932;2022-09-29T04:42:50;9.80;99.90
837;DHT22;400;53.550;9.932;2022-09-29T04:45:18;9.80;99.90
837;DHT22;400;53.550;9.932;2022-09-29T04:47:45;9.90;99.90
837;DHT22;400;53.550;9.932;2022-09-29T04:50:13;9.90;99.90
837;DHT22;400;53.550;9.932;2022-09-29T04:52:42;9.90;99.90
837;DHT22;400;53.550;9.932;2022-09-29T04:55:11;9.90;99.90
837;DHT22;400;53.550;9.932;2022-09-29T04:57:43;9.90;99.90
837;DHT22;400;53.550;9.932;2022-09-29T05:00:13;9.90;99.90
837;DHT22;400;53.550;9.932;2022-09-29T05:02:45;10.00;99.90
837;DHT22;400;53.550;9.932;2022-09-29T05:05:13;10.00;99.90
837;DHT22;400;53.550;9.932;2022-09-29T05:07:41;9.90;99.90
837;DHT22;400;53.550;9.932;2022-09-29T05:10:11;10.00;99.90
837;DHT22;400;53.550;9.932;2022-09-29T05:12:43;10.00;99.90
837;DHT22;400;53.550;9.932;2022-09-29T05:15:17;9.90;99.90
837;DHT22;400;53.550;9.932;2022-09-29T05:17:49;9.90;99.90
837;DHT22;400;53.550;9.932;2022-09-29T05:20:19;9.90;99.90
837;DHT22;400;53.550;9.932;2022-09-29T05:22:46;9.90;99.90
837;DHT22;400;53.550;9.932;2022-09-29T05:25:13;9.90;99.90
837;DHT22;400;53.550;9.932;2022-09-29T05:27:42;9.70;99.90
837;DHT22;400;53.550;9.932;2022-09-29T05:30:10;9.70;99.90
837;DHT22;400;53.550;9.932;2022-09-29T05:32:37;9.70;99.90
837;DHT22;400;53.550;9.932;2022-09-29T05:35:16;9.80;99.90
837;DHT22;400;53.550;9.932;2022-09-29T05:37:47;9.90;99.90
837;DHT22;400;53.550;9.932;2022-09-29T05:40:21;9.90;99.90
837;DHT22;400;53.550;9.932;2022-09-29T05:42:51;9.90;99.90
837;DHT22;400;53.550;9.932;2022-09-29T05:45:18;10.00;99.90
837;DHT22;400;53.550;9.932;2022-09-29T05:47:46;10.00;99.90
837;DHT22;400;53.550;9.932;2022-09-29T05:50:19;10.00;99.90
837;DHT22;400;53.550;9.932;2022-09-29T05:52:49;10.00;99.90
837;DHT22;400;53.550;9.932;2022-09-29T05:55:21;10.10;99.90
837;DHT22;400;53.550;9.932;2022-09-29T05:57:58;10.10;99.90
837;DHT22;400;53.550;9.932;2022-09-29T06:00:30;10.00;99.90
837;DHT22;400;53.550;9.932;2022-09-29T06:03:02;10.10;99.90
837;DHT22;400;53.550;9.932;2022-09-29T06:06:02;10.10;99.90
837;DHT22;400;53.550;9.932;2022-09-29T06:08:47;10.00;99.90
837;DHT22;400;53.550;9.932;2022-09-29T06:11:18;10.00;99.90
837;DHT22;400;53.550;9.932;2022-09-29T06:13:46;10.00;99.90
837;DHT22;400;53.550;9.932;2022-09-29T06:16:14;10.00;99.90
837;DHT22;400;53.550;9.932;2022-09-29T06:18:41;10.10;99.90
837;DHT22;400;53.550;9.932;2022-09-29T06:21:16;10.10;99.90
837;DHT22;400;53.550;9.932;2022-09-29T06:23:47;10.10;99.90
837;DHT22;400;53.550;9.932;2022-09-29T06:26:19;10.20;99.90
837;DHT22;400;53.550;9.932;2022-09-29T06:28:46;10.00;99.90
837;DHT22;400;53.550;9.932;2022-09-29T06:31:16;10.00;99.90
837;DHT22;400;53.550;9.932;2022-09-29T06:33:43;9.90;99.90
837;DHT22;400;53.550;9.932;2022-09-29T06:36:16;9.90;99.90
837;DHT22;400;53.550;9.932;2022-09-29T06:39:01;10.00;99.90
837;DHT22;400;53.550;9.932;2022-09-29T06:41:29;10.00;99.90
837;DHT22;400;53.550;9.932;2022-09-29T06:43:56;9.90;99.90
837;DHT22;400;53.550;9.932;2022-09-29T06:46:27;10.00;99.90
837;DHT22;400;53.550;9.932;2022-09-29T06:49:00;10.10;99.90
837;DHT22;400;53.550;9.932;2022-09-29T06:51:30;10.20;99.90
837;DHT22;400;53.550;9.932;2022-09-29T06:54:00;10.20;99.90
837;DHT22;400;53.550;9.932;2022-09-29T06:56:27;10.30;99.90
837;DHT22;400;53.550;9.932;2022-09-29T06:58:54;10.40;99.90
837;DHT22;400;53.550;9.932;2022-09-29T07:01:20;10.50;99.90
837;DHT22;400;53.550;9.932;2022-09-29T07:03:49;10.20;99.90
837;DHT22;400;53.550;9.932;2022-09-29T07:06:22;10.10;99.90
837;DHT22;400;53.550;9.932;2022-09-29T07:09:13;10.20;99.90
837;DHT22;400;53.550;9.932;2022-09-29T07:11:41;10.20;99.90
837;DHT22;400;53.550;9.932;2022-09-29T07:14:13;10.30;99.90
837;DHT22;400;53.550;9.932;2022-09-29T07:16:40;10.30;99.90
837;DHT22;400;53.550;9.932;2022-09-29T07:19:12;10.40;99.90
837;DHT22;400;53.550;9.932;2022-09-29T07:21:42;10.20;99.90
837;DHT22;400;53.550;9.932;2022-09-29T07:24:15;9.90;99.90
837;DHT22;400;53.550;9.932;2022-09-29T07:26:45;9.80;99.90
837;DHT22;400;53.550;9.932;2022-09-29T07:29:12;9.70;99.90
837;DHT22;400;53.550;9.932;2022-09-29T07:31:39;9.70;99.90
837;DHT22;400;53.550;9.932;2022-09-29T07:34:05;9.70;99.90
837;DHT22;400;53.550;9.932;2022-09-29T07:36:32;9.80;99.90
837;DHT22;400;53.550;9.932;2022-09-29T07:39:03;9.90;99.90
837;DHT22;400;53.550;9.932;2022-09-29T07:41:31;9.80;99.90
837;DHT22;400;53.550;9.932;2022-09-29T07:44:02;9.80;99.90
837;DHT22;400;53.550;9.932;2022-09-29T07:46:31;9.70;99.90
837;DHT22;400;53.550;9.932;2022-09-29T07:49:01;9.80;99.90
837;DHT22;400;53.550;9.932;2022-09-29T07:51:28;9.90;99.90
837;DHT22;400;53.550;9.932;2022-09-29T07:54:01;10.00;99.90
837;DHT22;400;53.550;9.932;2022-09-29T07:56:33;10.30;99.90
837;DHT22;400;53.550;9.932;2022-09-29T07:59:00;10.50;99.90
837;DHT22;400;53.550;9.932;2022-09-29T08:01:29;10.60;99.90
837;DHT22;400;53.550;9.932;2022-09-29T08:03:56;10.60;99.90
837;DHT22;400;53.550;9.932;2022-09-29T08:06:26;10.80;99.90
837;DHT22;400;53.550;9.932;2022-09-29T08:08:54;11.00;99.90
837;DHT22;400;53.550;9.932;2022-09-29T08:11:21;11.10;99.90
837;DHT22;400;53.550;9.932;2022-09-29T08:13:51;11.20;99.90
837;DHT22;400;53.550;9.932;2022-09-29T08:16:19;11.10;99.90
837;DHT22;400;53.550;9.932;2022-09-29T08:18:47;11.20;99.90
837;DHT22;400;53.550;9.932;2022-09-29T08:21:14;11.40;99.90
837;DHT22;400;53.550;9.932;2022-09-29T08:23:44;11.50;99.90
837;DHT22;400;53.550;9.932;2022-09-29T08:26:19;11.60;99.90
837;DHT22;400;53.550;9.932;2022-09-29T08:28:56;11.70;99.90
837;DHT22;400;53.550;9.932;2022-09-29T08:31:25;11.60;99.90
837;DHT22;400;53.550;9.932;2022-09-29T08:33:52;11.70;99.90
837;DHT22;400;53.550;9.932;2022-09-29T08:36:19;11.70;99.90
837;DHT22;400;53.550;9.932;2022-09-29T08:38:48;11.60;99.90
837;DHT22;400;53.550;9.932;2022-09-29T08:41:29;11.40;99.90
837;DHT22;400;53.550;9.932;2022-09-29T08:44:02;11.40;99.90
837;DHT22;400;53.550;9.932;2022-09-29T08:46:36;11.40;99.90
837;DHT22;400;53.550;9.932;2022-09-29T08:49:12;11.40;99.90
837;DHT22;400;53.550;9.932;2022-09-29T08:51:48;11.40;99.90
837;DHT22;400;53.550;9.932;2022-09-29T08:54:25;11.40;99.90
837;DHT22;400;53.550;9.932;2022-09-29T08:56:56;11.40;99.90
837;DHT22;400;53.550;9.932;2022-09-29T08:59:25;11.30;99.90
837;DHT22;400;53.550;9.932;2022-09-29T09:02:03;11.30;99.90
837;DHT22;400;53.550;9.932;2022-09-29T09:04:55;11.50;99.90
837;DHT22;400;53.550;9.932;2022-09-29T09:07:31;11.60;99.90
837;DHT22;400;53.550;9.932;2022-09-29T09:10:17;11.80;99.90
837;DHT22;400;53.550;9.932;2022-09-29T09:13:15;11.80;99.90
837;DHT22;400;53.550;9.932;2022-09-29T09:16:02;11.80;99.90
837;DHT22;400;53.550;9.932;2022-09-29T09:18:41;11.70;99.90
837;DHT22;400;53.550;9.932;2022-09-29T09:21:16;11.70;99.90
837;DHT22;400;53.550;9.932;2022-09-29T09:23:52;11.80;99.90
837;DHT22;400;53.550;9.932;2022-09-29T09:26:27;11.80;99.90
837;DHT22;400;53.550;9.932;2022-09-29T09:28:59;12.00;99.90
837;DHT22;400;53.550;9.932;2022-09-29T09:31:36;12.00;99.90
837;DHT22;400;53.550;9.932;2022-09-29T09:34:13;12.00;99.90
837;DHT22;400;53.550;9.932;2022-09-29T09:36:48;12.00;99.90
837;DHT22;400;53.550;9.932;2022-09-29T09:39:22;12.20;99.90
837;DHT22;400;53.550;9.932;2022-09-29T09:42:05;12.40;99.90
837;DHT22;400;53.550;9.932;2022-09-29T09:44:39;12.50;99.90
837;DHT22;400;53.550;9.932;2022-09-29T09:47:22;12.60;99.90
837;DHT22;400;53.550;9.932;2022-09-29T09:49:53;12.70;99.90
837;DHT22;400;53.550;9.932;2022-09-29T09:52:24;12.90;99.90
837;DHT22;400;53.550;9.932;2022-09-29T09:54:55;12.90;99.90
837;DHT22;400;53.550;9.932;2022-09-29T10:00:31;13.00;99.90
837;DHT22;400;53.550;9.932;2022-09-29T10:03:05;12.80;99.90
837;DHT22;400;53.550;9.932;2022-09-29T10:05:38;12.80;99.90
837;DHT22;400;53.550;9.932;2022-09-29T10:08:06;12.80;99.90
837;DHT22;400;53.550;9.932;2022-09-29T10:10:35;12.80;99.90
837;DHT22;400;53.550;9.932;2022-09-29T10:13:05;12.90;99.90
837;DHT22;400;53.550;9.932;2022-09-29T10:15:36;12.80;99.90
837;DHT22;400;53.550;9.932;2022-09-29T10:18:11;12.90;99.90
837;DHT22;400;53.550;9.932;2022-09-29T10:20:42;13.20;99.90
837;DHT22;400;53.550;9.932;2022-09-29T10:23:23;13.00;99.90
837;DHT22;400;53.550;9.932;2022-09-29T10:25:53;13.00;99.90
837;DHT22;400;53.550;9.932;2022-09-29T10:28:25;13.20;99.90
837;DHT22;400;53.550;9.932;2022-09-29T10:30:56;13.20;99.90
837;DHT22;400;53.550;9.932;2022-09-29T10:33:25;13.40;99.90
837;DHT22;400;53.550;9.932;2022-09-29T10:36:06;13.10;99.90
837;DHT22;400;53.550;9.932;2022-09-29T10:38:38;12.90;99.90
837;DHT22;400;53.550;9.932;2022-09-29T10:41:06;12.90;99.90
837;DHT22;400;53.550;9.932;2022-09-29T10:43:36;13.10;99.90
837;DHT22;400;53.550;9.932;2022-09-29T10:46:08;13.30;99.90
837;DHT22;400;53.550;9.932;2022-09-29T10:49:13;13.40;99.90
837;DHT22;400;53.550;9.932;2022-09-29T10:51:50;13.40;99.90
837;DHT22;400;53.550;9.932;2022-09-29T10:54:21;13.20;99.90
837;DHT22;400;53.550;9.932;2022-09-29T10:56:52;13.20;99.90
837;DHT22;400;53.550;9.932;2022-09-29T10:59:21;12.90;99.90
837;DHT22;400;53.550;9.932;2022-09-29T11:01:52;12.80;99.90
837;DHT22;400;53.550;9.932;2022-09-29T11:04:25;12.80;99.90
837;DHT22;400;53.550;9.932;2022-09-29T11:06:54;13.10;99.90
837;DHT22;400;53.550;9.932;2022-09-29T11:09:30;13.10;99.90
837;DHT22;400;53.550;9.932;2022-09-29T11:12:04;12.90;99.90
837;DHT22;400;53.550;9.932;2022-09-29T11:14:40;12.90;99.90
837;DHT22;400;53.550;9.932;2022-09-29T11:17:21;12.90;99.90
837;DHT22;400;53.550;9.932;2022-09-29T11:19:55;12.80;99.90
837;DHT22;400;53.550;9.932;2022-09-29T11:22:58;12.90;99.90
837;DHT22;400;53.550;9.932;2022-09-29T11:25:48;13.00;99.90
837;DHT22;400;53.550;9.932;2022-09-29T11:31:42;13.00;99.90
837;DHT22;400;53.550;9.932;2022-09-29T11:34:41;12.90;99.90
837;DHT22;400;53.550;9.932;2022-09-29T11:37:28;13.00;99.90
837;DHT22;400;53.550;9.932;2022-09-29T11:40:08;13.00;99.90
837;DHT22;400;53.550;9.932;2022-09-29T11:45:47;13.20;99.90
837;DHT22;400;53.550;9.932;2022-09-29T11:48:43;13.50;99.90
837;DHT22;400;53.550;9.932;2022-09-29T11:51:31;13.70;99.90
837;DHT22;400;53.550;9.932;2022-09-29T11:54:17;13.90;99.90
837;DHT22;400;53.550;9.932;2022-09-29T11:56:52;13.80;99.90
837;DHT22;400;53.550;9.932;2022-09-29T11:59:49;13.90;99.90
837;DHT22;400;53.550;9.932;2022-09-29T12:02:35;13.70;99.90
837;DHT22;400;53.550;9.932;2022-09-29T12:05:56;13.50;99.90
837;DHT22;400;53.550;9.932;2022-09-29T12:08:38;13.60;99.90
837;DHT22;400;53.550;9.932;2022-09-29T12:11:22;13.60;99.90
837;DHT22;400;53.550;9.932;2022-09-29T12:14:02;13.60;99.90
837;DHT22;400;53.550;9.932;2022-09-29T12:16:36;13.50;99.90
837;DHT22;400;53.550;9.932;2022-09-29T12:19:10;13.60;99.90
837;DHT22;400;53.550;9.932;2022-09-29T12:21:43;13.70;99.90
837;DHT22;400;53.550;9.932;2022-09-29T12:24:16;13.70;99.90
837;DHT22;400;53.550;9.932;2022-09-29T12:26:48;13.70;99.90
837;DHT22;400;53.550;9.932;2022-09-29T12:29:26;13.80;99.90
837;DHT22;400;53.550;9.932;2022-09-29T12:31:58;13.60;99.90
837;DHT22;400;53.550;9.932;2022-09-29T12:34:38;13.50;99.90
837;DHT22;400;53.550;9.932;2022-09-29T12:37:18;13.40;99.90
837;DHT22;400;53.550;9.932;2022-09-29T12:39:59;13.30;99.90
837;DHT22;400;53.550;9.932;2022-09-29T12:42:53;13.20;99.90
837;DHT22;400;53.550;9.932;2022-09-29T12:45:29;13.20;99.90
837;DHT22;400;53.550;9.932;2022-09-29T12:48:11;13.20;99.90
837;DHT22;400;53.550;9.932;2022-09-29T12:50:50;13.10;99.90
837;DHT22;400;53.550;9.932;2022-09-29T12:53:23;13.10;99.90
837;DHT22;400;53.550;9.932;2022-09-29T12:55:56;13.10;99.90
837;DHT22;400;53.550;9.932;2022-09-29T12:58:34;13.20;99.90
837;DHT22;400;53.550;9.932;2022-09-29T13:01:19;13.20;99.90
837;DHT22;400;53.550;9.932;2022-09-29T13:04:24;13.10;99.90
837;DHT22;400;53.550;9.932;2022-09-29T13:10:28;13.20;99.90
837;DHT22;400;53.550;9.932;2022-09-29T13:13:24;13.10;99.90
837;DHT22;400;53.550;9.932;2022-09-29T13:16:31;13.20;99.90
837;DHT22;400;53.550;9.932;2022-09-29T13:24:59;13.40;99.90
837;DHT22;400;53.550;9.932;2022-09-29T13:27:32;13.30;99.90
837;DHT22;400;53.550;9.932;2022-09-29T13:30:12;13.20;99.90
837;DHT22;400;53.550;9.932;2022-09-29T13:32:48;13.30;99.90
837;DHT22;400;53.550;9.932;2022-09-29T13:35:22;13.40;99.90
837;DHT22;400;53.550;9.932;2022-09-29T13:37:52;13.50;99.90
837;DHT22;400;53.550;9.932;2022-09-29T13:40:24;13.50;99.90
837;DHT22;400;53.550;9.932;2022-09-29T13:42:55;13.60;99.90
837;DHT22;400;53.550;9.932;2022-09-29T13:45:40;13.60;99.90
837;DHT22;400;53.550;9.932;2022-09-29T13:54:44;14.00;99.90
837;DHT22;400;53.550;9.932;2022-09-29T13:57:19;13.90;99.90
837;DHT22;400;53.550;9.932;2022-09-29T14:02:45;14.10;99.90
837;DHT22;400;53.550;9.932;2022-09-29T14:05:35;14.20;99.90
837;DHT22;400;53.550;9.932;2022-09-29T14:08:25;14.20;99.90
837;DHT22;400;53.550;9.932;2022-09-29T14:11:03;14.20;99.90
837;DHT22;400;53.550;9.932;2022-09-29T14:13:38;14.30;99.90
837;DHT22;400;53.550;9.932;2022-09-29T14:16:16;14.30;99.90
837;DHT22;400;53.550;9.932;2022-09-29T14:18:47;14.20;99.90
837;DHT22;400;53.550;9.932;2022-09-29T14:21:44;14.30;99.90
837;DHT22;400;53.550;9.932;2022-09-29T14:27:34;14.10;99.90
837;DHT22;400;53.550;9.932;2022-09-29T14:30:15;14.20;99.90
837;DHT22;400;53.550;9.932;2022-09-29T14:32:51;14.30;99.90
837;DHT22;400;53.550;9.932;2022-09-29T14:35:30;14.30;99.90
837;DHT22;400;53.550;9.932;2022-09-29T14:38:07;14.40;99.90
837;DHT22;400;53.550;9.932;2022-09-29T14:40:55;14.40;99.90
837;DHT22;400;53.550;9.932;2022-09-29T14:43:36;14.30;99.90
837;DHT22;400;53.550;9.932;2022-09-29T14:49:51;14.10;99.90
837;DHT22;400;53.550;9.932;2022-09-29T14:52:49;14.10;99.90
837;DHT22;400;53.550;9.932;2022-09-29T14:55:34;14.10;99.90
837;DHT22;400;53.550;9.932;2022-09-29T14:58:18;14.20;99.90
837;DHT22;400;53.550;9.932;2022-09-29T15:01:00;14.20;99.90
837;DHT22;400;53.550;9.932;2022-09-29T15:03:30;14.30;99.90
837;DHT22;400;53.550;9.932;2022-09-29T15:06:05;14.20;99.90
837;DHT22;400;53.550;9.932;2022-09-29T15:08:32;14.10;99.90
837;DHT22;400;53.550;9.932;2022-09-29T15:13:48;14.10;99.90
837;DHT22;400;53.550;9.932;2022-09-29T15:16:22;14.00;99.90
837;DHT22;400;53.550;9.932;2022-09-29T15:19:11;14.10;99.90
837;DHT22;400;53.550;9.932;2022-09-29T15:21:46;14.20;99.90
837;DHT22;400;53.550;9.932;2022-09-29T15:27:34;14.20;99.90
837;DHT22;400;53.550;9.932;2022-09-29T15:30:02;14.20;99.90
837;DHT22;400;53.550;9.932;2022-09-29T15:32:31;14.30;99.90
837;DHT22;400;53.550;9.932;2022-09-29T15:35:03;14.40;99.90
837;DHT22;400;53.550;9.932;2022-09-29T15:37:54;14.40;99.90
837;DHT22;400;53.550;9.932;2022-09-29T15:40:23;14.20;99.90
837;DHT22;400;53.550;9.932;2022-09-29T15:42:51;14.30;99.90
837;DHT22;400;53.550;9.932;2022-09-29T15:45:22;14.30;99.90
837;DHT22;400;53.550;9.932;2022-09-29T15:48:09;14.10;99.90
837;DHT22;400;53.550;9.932;2022-09-29T15:50:42;14.00;99.90
837;DHT22;400;53.550;9.932;2022-09-29T15:53:09;14.10;99.90
837;DHT22;400;53.550;9.932;2022-09-29T15:55:37;14.10;99.90
837;DHT22;400;53.550;9.932;2022-09-29T15:58:34;14.10;99.90
837;DHT22;400;53.550;9.932;2022-09-29T16:01:11;14.20;99.90
837;DHT22;400;53.550;9.932;2022-09-29T16:03:50;14.20;99.90
837;DHT22;400;53.550;9.932;2022-09-29T16:06:27;14.20;99.90
837;DHT22;400;53.550;9.932;2022-09-29T16:09:04;14.20;99.90
837;DHT22;400;53.550;9.932;2022-09-29T16:11:38;14.20;99.90
837;DHT22;400;53.550;9.932;2022-09-29T16:14:16;14.20;99.90
837;DHT22;400;53.550;9.932;2022-09-29T16:16:51;14.20;99.90
837;DHT22;400;53.550;9.932;2022-09-29T16:19:26;14.20;99.90
837;DHT22;400;53.550;9.932;2022-09-29T16:21:57;14.20;99.90
837;DHT22;400;53.550;9.932;2022-09-29T16:24:30;14.20;99.90
837;DHT22;400;53.550;9.932;2022-09-29T16:27:00;14.20;99.90
837;DHT22;400;53.550;9.932;2022-09-29T16:29:30;14.10;99.90
837;DHT22;400;53.550;9.932;2022-09-29T16:34:52;14.00;99.90
837;DHT22;400;53.550;9.932;2022-09-29T16:37:29;14.00;99.90
837;DHT22;400;53.550;9.932;2022-09-29T16:40:00;14.00;99.90
837;DHT22;400;53.550;9.932;2022-09-29T16:42:29;14.00;99.90
837;DHT22;400;53.550;9.932;2022-09-29T16:44:57;14.10;99.90
837;DHT22;400;53.550;9.932;2022-09-29T16:47:26;13.90;99.90
837;DHT22;400;53.550;9.932;2022-09-29T16:49:58;13.90;99.90
837;DHT22;400;53.550;9.932;2022-09-29T16:52:43;13.90;99.90
837;DHT22;400;53.550;9.932;2022-09-29T16:55:18;14.00;99.90
837;DHT22;400;53.550;9.932;2022-09-29T16:57:54;13.90;99.90
837;DHT22;400;53.550;9.932;2022-09-29T17:00:24;13.70;99.90
837;DHT22;400;53.550;9.932;2022-09-29T17:03:02;13.80;99.90
837;DHT22;400;53.550;9.932;2022-09-29T17:05:39;13.80;99.90
837;DHT22;400;53.550;9.932;2022-09-29T17:08:17;13.90;99.90
837;DHT22;400;53.550;9.932;2022-09-29T17:10:45;13.90;99.90
837;DHT22;400;53.550;9.932;2022-09-29T17:13:15;14.00;99.90
837;DHT22;400;53.550;9.932;2022-09-29T17:15:46;14.00;99.90
837;DHT22;400;53.550;9.932;2022-09-29T17:18:18;14.00;99.90
837;DHT22;400;53.550;9.932;2022-09-29T17:20:58;14.00;99.90
837;DHT22;400;53.550;9.932;2022-09-29T17:23:30;14.00;99.90
837;DHT22;400;53.550;9.932;2022-09-29T17:26:00;14.00;99.90
837;DHT22;400;53.550;9.932;2022-09-29T17:28:43;14.00;99.90
837;DHT22;400;53.550;9.932;2022-09-29T17:31:12;14.00;99.90
837;DHT22;400;53.550;9.932;2022-09-29T17:33:39;14.00;99.90
837;DHT22;400;53.550;9.932;2022-09-29T17:36:11;14.00;99.90
837;DHT22;400;53.550;9.932;2022-09-29T17:38:38;14.00;99.90
837;DHT22;400;53.550;9.932;2022-09-29T17:41:07;14.10;99.90
837;DHT22;400;53.550;9.932;2022-09-29T17:43:40;14.10;99.90
837;DHT22;400;53.550;9.932;2022-09-29T17:46:14;14.10;99.90
837;DHT22;400;53.550;9.932;2022-09-29T17:48:42;14.00;99.90
837;DHT22;400;53.550;9.932;2022-09-29T17:51:15;14.10;99.90
837;DHT22;400;53.550;9.932;2022-09-29T17:53:47;14.00;99.90
837;DHT22;400;53.550;9.932;2022-09-29T17:56:20;14.00;99.90
837;DHT22;400;53.550;9.932;2022-09-29T17:58:51;14.00;99.90
837;DHT22;400;53.550;9.932;2022-09-29T18:01:21;14.00;99.90
837;DHT22;400;53.550;9.932;2022-09-29T18:03:49;13.90;99.90
837;DHT22;400;53.550;9.932;2022-09-29T18:06:23;13.90;99.90